sensor_id;sensor_type;location;lat;lon;timestamp;P1;P2;P0
45788;PMS7003;31492;54.856;26.318;2023-04-25T00:01:07;13.1;11.5;9.3
45788;PMS7003;31492;54.856;26.318;2023-04-25T00:06:07;14.3;12.8;9.8
45788;PMS7003;31492;54.856;26.318;2023-04-25T00:11:27;13;11.7;9.7
45788;PMS7003;31492;54.856;26.318;2023-04-25T00:16:17;13.6;12.6;10.1
45788;PMS7003;31492;54.856;26.318;2023-04-25T00:21:17;14.6;12.7;10.4
45788;PMS7003;31492;54.856;26.318;2023-04-25T00:26:21;13.8;12.4;10
45788;PMS7003;31492;54.856;26.318;2023-04-25T00:31:25;14.2;12.5;10
45788;PMS7003;31492;54.856;26.318;2023-04-25T00:36:07;15.2;12.9;10.5
45788;PMS7003;31492;54.856;26.318;2023-04-25T00:41:31;13.4;12.3;9.7
45788;PMS7003;31492;54.856;26.318;2023-04-25T00:46:31;12.7;11.9;9.4
45788;PMS7003;31492;54.856;26.318;2023-04-25T00:51:19;14.3;12.6;10.1
45788;PMS7003;31492;54.856;26.318;2023-04-25T00:56:33;13.9;12.5;9.8
45788;PMS7003;31492;54.856;26.318;2023-04-25T01:01:29;14.2;13;10.4
45788;PMS7003;31492;54.856;26.318;2023-04-25T01:06:17;13.9;12.2;9.1
45788;PMS7003;31492;54.856;26.318;2023-04-25T01:11:21;12.9;11.8;9.7
45788;PMS7003;31492;54.856;26.318;2023-04-25T01:16:07;14.5;12.6;9.8
45788;PMS7003;31492;54.856;26.318;2023-04-25T01:21:21;14.9;12.9;10.4
45788;PMS7003;31492;54.856;26.318;2023-04-25T01:26:15;15;12.8;10.5
45788;PMS7003;31492;54.856;26.318;2023-04-25T01:31:17;15.3;13.5;10.9
45788;PMS7003;31492;54.856;26.318;2023-04-25T01:36:31;15.1;13.5;10.9
45788;PMS7003;31492;54.856;26.318;2023-04-25T01:41:07;15.3;13.7;11
45788;PMS7003;31492;54.856;26.318;2023-04-25T01:46:16;13.8;12.3;9.8
45788;PMS7003;31492;54.856;26.318;2023-04-25T01:51:31;13.8;11.9;9.4
45788;PMS7003;31492;54.856;26.318;2023-04-25T01:56:07;15.4;13.6;10.7
45788;PMS7003;31492;54.856;26.318;2023-04-25T02:01:07;14.6;12.9;10.4
45788;PMS7003;31492;54.856;26.318;2023-04-25T02:06:21;15.5;13.5;10.7
45788;PMS7003;31492;54.856;26.318;2023-04-25T02:11:07;15.2;13.6;10.9
45788;PMS7003;31492;54.856;26.318;2023-04-25T02:16:27;15.2;13.2;10.5
45788;PMS7003;31492;54.856;26.318;2023-04-25T02:21:07;15.5;13.5;10.7
45788;PMS7003;31492;54.856;26.318;2023-04-25T02:26:07;15.3;13.6;10.7
45788;PMS7003;31492;54.856;26.318;2023-04-25T02:31:43;14.2;13.1;10.3
45788;PMS7003;31492;54.856;26.318;2023-04-25T02:36:07;14.8;12.3;9.5
45788;PMS7003;31492;54.856;26.318;2023-04-25T02:41:29;13.9;12.8;10.2
45788;PMS7003;31492;54.856;26.318;2023-04-25T02:46:17;16;13.7;10.6
45788;PMS7003;31492;54.856;26.318;2023-04-25T02:51:21;14.6;13.1;10.1
45788;PMS7003;31492;54.856;26.318;2023-04-25T02:56:07;14.5;13.1;10.3
45788;PMS7003;31492;54.856;26.318;2023-04-25T03:01:17;15.3;13.3;10.4
45788;PMS7003;31492;54.856;26.318;2023-04-25T03:06:07;14;11.6;9.1
45788;PMS7003;31492;54.856;26.318;2023-04-25T03:11:15;13.9;11.6;8.7
45788;PMS7003;31492;54.856;26.318;2023-04-25T03:16:17;15.4;13.4;10.6
45788;PMS7003;31492;54.856;26.318;2023-04-25T03:21:13;14.2;12.8;10.2
45788;PMS7003;31492;54.856;26.318;2023-04-25T03:26:07;14.4;12.7;10.2
45788;PMS7003;31492;54.856;26.318;2023-04-25T03:31:07;14.5;12.6;10.2
45788;PMS7003;31492;54.856;26.318;2023-04-25T03:36:07;14.5;12.5;10.1
45788;PMS7003;31492;54.856;26.318;2023-04-25T03:41:07;14;12.5;9.8
45788;PMS7003;31492;54.856;26.318;2023-04-25T03:46:07;14.5;12.8;9.9
45788;PMS7003;31492;54.856;26.318;2023-04-25T03:51:07;14;12.5;10.1
45788;PMS7003;31492;54.856;26.318;2023-04-25T03:56:08;13.6;12.3;9.8
45788;PMS7003;31492;54.856;26.318;2023-04-25T04:01:21;13.3;11.5;9.5
45788;PMS7003;31492;54.856;26.318;2023-04-25T04:06:17;15.3;12.5;10.1
45788;PMS7003;31492;54.856;26.318;2023-04-25T04:11:17;14.3;12.3;9.9
45788;PMS7003;31492;54.856;26.318;2023-04-25T04:16:29;12.6;11.7;9.5
45788;PMS7003;31492;54.856;26.318;2023-04-25T04:21:13;14.1;12.7;9.9
45788;PMS7003;31492;54.856;26.318;2023-04-25T04:26:07;13.7;12.2;9.8
45788;PMS7003;31492;54.856;26.318;2023-04-25T04:31:31;14.2;12.4;10
45788;PMS7003;31492;54.856;26.318;2023-04-25T04:36:25;13.4;12.1;9.7
45788;PMS7003;31492;54.856;26.318;2023-04-25T04:41:13;14;12.4;10.2
45788;PMS7003;31492;54.856;26.318;2023-04-25T04:46:31;13.8;12.1;9.6
45788;PMS7003;31492;54.856;26.318;2023-04-25T04:51:13;13.9;12;9.3
45788;PMS7003;31492;54.856;26.318;2023-04-25T04:56:23;12.1;11.2;9
45788;PMS7003;31492;54.856;26.318;2023-04-25T05:01:17;13;11.9;9.4
45788;PMS7003;31492;54.856;26.318;2023-04-25T05:06:07;13.1;11.3;8.8
45788;PMS7003;31492;54.856;26.318;2023-04-25T05:11:41;12.3;10.8;8.9
45788;PMS7003;31492;54.856;26.318;2023-04-25T05:16:07;12.7;11.7;9.4
45788;PMS7003;31492;54.856;26.318;2023-04-25T05:21:29;12.5;11.2;9.1
45788;PMS7003;31492;54.856;26.318;2023-04-25T05:26:31;13.1;10.9;9
45788;PMS7003;31492;54.856;26.318;2023-04-25T05:31:25;11.9;10.7;8.6
45788;PMS7003;31492;54.856;26.318;2023-04-25T05:36:43;12.6;11;9.1
45788;PMS7003;31492;54.856;26.318;2023-04-25T05:41:07;12.6;10.3;8.2
45788;PMS7003;31492;54.856;26.318;2023-04-25T05:46:17;11.9;10.9;8.8
45788;PMS7003;31492;54.856;26.318;2023-04-25T05:51:29;11.2;10.5;8.5
45788;PMS7003;31492;54.856;26.318;2023-04-25T05:56:31;11.7;10.3;8.2
45788;PMS7003;31492;54.856;26.318;2023-04-25T06:01:29;11.5;10.4;8.2
45788;PMS7003;31492;54.856;26.318;2023-04-25T06:06:27;11;10.1;8
45788;PMS7003;31492;54.856;26.318;2023-04-25T06:11:23;11.4;10.1;8.5
45788;PMS7003;31492;54.856;26.318;2023-04-25T06:16:39;11.3;10.1;8.1
45788;PMS7003;31492;54.856;26.318;2023-04-25T06:21:07;11.8;9.7;7.9
45788;PMS7003;31492;54.856;26.318;2023-04-25T06:26:24;11;9.2;7.5
45788;PMS7003;31492;54.856;26.318;2023-04-25T06:31:23;11.5;9.8;8.3
45788;PMS7003;31492;54.856;26.318;2023-04-25T06:36:31;11.9;10.7;8.7
45788;PMS7003;31492;54.856;26.318;2023-04-25T06:41:07;11.2;10.1;7.8
45788;PMS7003;31492;54.856;26.318;2023-04-25T06:46:07;10.7;10.3;8
45788;PMS7003;31492;54.856;26.318;2023-04-25T06:51:07;11.8;10.8;8.5
45788;PMS7003;31492;54.856;26.318;2023-04-25T06:56:31;10.9;9.6;7.6
45788;PMS7003;31492;54.856;26.318;2023-04-25T07:01:11;10.4;9.6;7.9
45788;PMS7003;31492;54.856;26.318;2023-04-25T07:06:21;11.5;10.2;8
45788;PMS7003;31492;54.856;26.318;2023-04-25T07:11:17;11.1;9.7;8
45788;PMS7003;31492;54.856;26.318;2023-04-25T07:16:29;12.1;10.2;7.8
45788;PMS7003;31492;54.856;26.318;2023-04-25T07:21:07;9.1;8.2;6.8
45788;PMS7003;31492;54.856;26.318;2023-04-25T07:26:15;10.2;8.5;6.9
45788;PMS7003;31492;54.856;26.318;2023-04-25T07:31:17;10.7;9.1;7.6
45788;PMS7003;31492;54.856;26.318;2023-04-25T07:36:07;9;8.6;7.2
45788;PMS7003;31492;54.856;26.318;2023-04-25T07:41:25;9.2;8.5;7.2
45788;PMS7003;31492;54.856;26.318;2023-04-25T07:46:07;9.1;8.3;7
45788;PMS7003;31492;54.856;26.318;2023-04-25T07:51:19;9;8.4;6.6
45788;PMS7003;31492;54.856;26.318;2023-04-25T07:56:07;8.1;7.8;6.3
45788;PMS7003;31492;54.856;26.318;2023-04-25T08:01:17;8.1;7.3;5.9
45788;PMS7003;31492;54.856;26.318;2023-04-25T08:06:29;7.9;7.3;6
45788;PMS7003;31492;54.856;26.318;2023-04-25T08:11:13;7.7;7.4;6.2
45788;PMS7003;31492;54.856;26.318;2023-04-25T08:16:07;7.5;6.8;5.7
45788;PMS7003;31492;54.856;26.318;2023-04-25T08:21:27;7.9;7;5.8
45788;PMS7003;31492;54.856;26.318;2023-04-25T08:26:13;7.3;6.5;5.3
45788;PMS7003;31492;54.856;26.318;2023-04-25T08:31:17;7.6;6.6;5.7
45788;PMS7003;31492;54.856;26.318;2023-04-25T08:36:07;6.6;6;5.3
45788;PMS7003;31492;54.856;26.318;2023-04-25T08:41:07;6.1;5.8;4.8
45788;PMS7003;31492;54.856;26.318;2023-04-25T08:46:21;4.6;4.3;3.7
45788;PMS7003;31492;54.856;26.318;2023-04-25T08:51:33;3.7;3.3;2.9
45788;PMS7003;31492;54.856;26.318;2023-04-25T08:56:07;2.4;2;1.7
45788;PMS7003;31492;54.856;26.318;2023-04-25T09:01:07;2;1.6;1.3
45788;PMS7003;31492;54.856;26.318;2023-04-25T09:06:13;2;1.6;1.4
45788;PMS7003;31492;54.856;26.318;2023-04-25T09:11:07;1.4;1.2;0.9
45788;PMS7003;31492;54.856;26.318;2023-04-25T09:16:25;2;1.8;1.5
45788;PMS7003;31492;54.856;26.318;2023-04-25T09:21:08;2.6;2.4;1.7
45788;PMS7003;31492;54.856;26.318;2023-04-25T09:26:07;3.2;2.6;2.1
45788;PMS7003;31492;54.856;26.318;2023-04-25T09:31:07;3.3;2.5;2
45788;PMS7003;31492;54.856;26.318;2023-04-25T09:36:08;3.6;3.2;2.6
45788;PMS7003;31492;54.856;26.318;2023-04-25T09:41:07;3.9;3.3;3
45788;PMS7003;31492;54.856;26.318;2023-04-25T09:46:32;5.2;4.5;3.7
45788;PMS7003;31492;54.856;26.318;2023-04-25T09:51:24;6;5.2;4.4
45788;PMS7003;31492;54.856;26.318;2023-04-25T09:56:21;5.9;5.4;4.6
45788;PMS7003;31492;54.856;26.318;2023-04-25T10:01:08;6.4;5.9;4.8
45788;PMS7003;31492;54.856;26.318;2023-04-25T10:06:23;7.2;6.6;5.5
45788;PMS7003;31492;54.856;26.318;2023-04-25T10:11:08;6.5;6.1;5.2
45788;PMS7003;31492;54.856;26.318;2023-04-25T10:16:43;7.9;7;5.7
45788;PMS7003;31492;54.856;26.318;2023-04-25T10:21:17;7.9;7.1;6
45788;PMS7003;31492;54.856;26.318;2023-04-25T10:26:43;8.8;7.8;6.5
45788;PMS7003;31492;54.856;26.318;2023-04-25T10:31:08;9.6;9.1;7.8
45788;PMS7003;31492;54.856;26.318;2023-04-25T10:36:18;10.3;8.6;7.4
45788;PMS7003;31492;54.856;26.318;2023-04-25T10:41:20;10.2;9.1;7.5
45788;PMS7003;31492;54.856;26.318;2023-04-25T10:46:24;10.5;9.5;7.8
45788;PMS7003;31492;54.856;26.318;2023-04-25T10:51:08;9.9;9.4;7.5
45788;PMS7003;31492;54.856;26.318;2023-04-25T10:56:09;10.5;10;8.1
45788;PMS7003;31492;54.856;26.318;2023-04-25T11:01:19;11.3;10.3;8.4
45788;PMS7003;31492;54.856;26.318;2023-04-25T11:06:20;11.2;10.1;8.4
45788;PMS7003;31492;54.856;26.318;2023-04-25T11:11:07;11.7;10.4;8.6
45788;PMS7003;31492;54.856;26.318;2023-04-25T11:16:15;12.3;11.1;9.2
45788;PMS7003;31492;54.856;26.318;2023-04-25T11:21:16;11.4;10.3;8.3
45788;PMS7003;31492;54.856;26.318;2023-04-25T11:26:18;11.4;10.6;8.5
45788;PMS7003;31492;54.856;26.318;2023-04-25T11:31:07;11.6;10.8;9
45788;PMS7003;31492;54.856;26.318;2023-04-25T11:36:08;11.6;10.6;8.4
45788;PMS7003;31492;54.856;26.318;2023-04-25T11:41:07;11.8;10.3;8.5
45788;PMS7003;31492;54.856;26.318;2023-04-25T11:46:33;10.5;9.8;7.8
45788;PMS7003;31492;54.856;26.318;2023-04-25T11:51:08;9.5;8.6;7
45788;PMS7003;31492;54.856;26.318;2023-04-25T11:56:09;10.1;8.8;7.2
45788;PMS7003;31492;54.856;26.318;2023-04-25T12:01:24;9.8;9;7.4
45788;PMS7003;31492;54.856;26.318;2023-04-25T12:06:07;9.3;8.4;7.2
45788;PMS7003;31492;54.856;26.318;2023-04-25T12:11:20;9.3;8.6;7.1
45788;PMS7003;31492;54.856;26.318;2023-04-25T12:16:08;9.6;8.7;7.1
45788;PMS7003;31492;54.856;26.318;2023-04-25T12:21:20;9.7;8.4;7.1
45788;PMS7003;31492;54.856;26.318;2023-04-25T12:26:17;9.1;8.3;7
45788;PMS7003;31492;54.856;26.318;2023-04-25T12:31:17;9.5;8.7;7.3
45788;PMS7003;31492;54.856;26.318;2023-04-25T12:36:08;8.5;8.1;6.9
45788;PMS7003;31492;54.856;26.318;2023-04-25T12:41:17;9.3;8.3;6.9
45788;PMS7003;31492;54.856;26.318;2023-04-25T12:46:07;9.5;8.7;7.1
45788;PMS7003;31492;54.856;26.318;2023-04-25T12:51:07;9.6;8.4;6.9
45788;PMS7003;31492;54.856;26.318;2023-04-25T12:56:14;10;8.6;7.1
45788;PMS7003;31492;54.856;26.318;2023-04-25T13:01:17;9.4;8.7;7.2
45788;PMS7003;31492;54.856;26.318;2023-04-25T13:06:18;8.2;7.8;6.2
45788;PMS7003;31492;54.856;26.318;2023-04-25T13:11:14;8.2;7.3;6.1
45788;PMS7003;31492;54.856;26.318;2023-04-25T13:16:08;9.1;8.4;6.9
45788;PMS7003;31492;54.856;26.318;2023-04-25T13:21:09;10;8.7;7
45788;PMS7003;31492;54.856;26.318;2023-04-25T13:26:27;9;8.6;7.2
45788;PMS7003;31492;54.856;26.318;2023-04-25T13:31:08;9.3;8.4;7.3
45788;PMS7003;31492;54.856;26.318;2023-04-25T13:36:18;10.3;9;7.4
45788;PMS7003;31492;54.856;26.318;2023-04-25T13:41:08;9.3;8.5;7
45788;PMS7003;31492;54.856;26.318;2023-04-25T13:46:32;8.7;7.7;6.4
45788;PMS7003;31492;54.856;26.318;2023-04-25T13:51:14;9.7;8.7;7
45788;PMS7003;31492;54.856;26.318;2023-04-25T13:56:18;9.2;8.1;6.6
45788;PMS7003;31492;54.856;26.318;2023-04-25T14:01:32;9.2;8.3;6.8
45788;PMS7003;31492;54.856;26.318;2023-04-25T14:06:14;8.3;7.3;5.9
45788;PMS7003;31492;54.856;26.318;2023-04-25T14:11:08;6.9;6.1;5
45788;PMS7003;31492;54.856;26.318;2023-04-25T14:16:18;7.3;6.4;5.3
45788;PMS7003;31492;54.856;26.318;2023-04-25T14:21:22;7.4;6.5;5.5
45788;PMS7003;31492;54.856;26.318;2023-04-25T14:26:08;7.4;6.6;5.6
45788;PMS7003;31492;54.856;26.318;2023-04-25T14:31:08;7.2;6.5;5.4
45788;PMS7003;31492;54.856;26.318;2023-04-25T14:36:08;7.1;6.5;5.4
45788;PMS7003;31492;54.856;26.318;2023-04-25T14:41:32;6.5;6;5
45788;PMS7003;31492;54.856;26.318;2023-04-25T14:46:26;7.5;7.2;5.7
45788;PMS7003;31492;54.856;26.318;2023-04-25T14:51:08;7.9;7;5.8
45788;PMS7003;31492;54.856;26.318;2023-04-25T14:56:32;7.6;6.4;5.2
45788;PMS7003;31492;54.856;26.318;2023-04-25T15:01:08;7.8;6.5;5.4
45788;PMS7003;31492;54.856;26.318;2023-04-25T15:06:18;7.7;6.7;5.7
45788;PMS7003;31492;54.856;26.318;2023-04-25T15:11:32;8.1;6.8;5.6
45788;PMS7003;31492;54.856;26.318;2023-04-25T15:16:08;7.9;7.2;6
45788;PMS7003;31492;54.856;26.318;2023-04-25T15:21:18;7.7;6.8;5.4
45788;PMS7003;31492;54.856;26.318;2023-04-25T15:26:22;7.2;6.4;5.3
45788;PMS7003;31492;54.856;26.318;2023-04-25T15:31:16;7.6;6.8;5.5
45788;PMS7003;31492;54.856;26.318;2023-04-25T15:36:32;7.8;7.1;5.9
45788;PMS7003;31492;54.856;26.318;2023-04-25T15:41:26;8.1;6.9;5.8
45788;PMS7003;31492;54.856;26.318;2023-04-25T15:46:14;8.5;7.6;6.1
45788;PMS7003;31492;54.856;26.318;2023-04-25T15:51:08;7.7;7.2;6
45788;PMS7003;31492;54.856;26.318;2023-04-25T15:56:08;7.9;6.9;5.8
45788;PMS7003;31492;54.856;26.318;2023-04-25T16:01:40;7.3;6.7;5.7
45788;PMS7003;31492;54.856;26.318;2023-04-25T16:06:08;7.1;6.3;5.2
45788;PMS7003;31492;54.856;26.318;2023-04-25T16:11:08;7.5;7;5.6
45788;PMS7003;31492;54.856;26.318;2023-04-25T16:16:28;6.8;6.4;5.2
45788;PMS7003;31492;54.856;26.318;2023-04-25T16:21:26;6.2;5.9;4.9
45788;PMS7003;31492;54.856;26.318;2023-04-25T16:26:08;6.5;5.8;4.8
45788;PMS7003;31492;54.856;26.318;2023-04-25T16:31:28;6.5;5.5;4.6
45788;PMS7003;31492;54.856;26.318;2023-04-25T16:36:32;6.8;5.7;4.8
45788;PMS7003;31492;54.856;26.318;2023-04-25T16:41:24;6.7;6.2;5.1
45788;PMS7003;31492;54.856;26.318;2023-04-25T16:46:16;7.4;6;4.8
45788;PMS7003;31492;54.856;26.318;2023-04-25T16:51:22;7;6;4.9
45788;PMS7003;31492;54.856;26.318;2023-04-25T16:56:14;6.5;5.8;4.7
45788;PMS7003;31492;54.856;26.318;2023-04-25T17:01:18;6.1;5.8;5.1
45788;PMS7003;31492;54.856;26.318;2023-04-25T17:06:08;6.6;6;4.9
45788;PMS7003;31492;54.856;26.318;2023-04-25T17:11:08;6.4;5.7;4.9
45788;PMS7003;31492;54.856;26.318;2023-04-25T17:16:18;6.4;6;5
45788;PMS7003;31492;54.856;26.318;2023-04-25T17:21:08;6.1;5.3;4.2
45788;PMS7003;31492;54.856;26.318;2023-04-25T17:26:08;6.8;6.1;4.9
45788;PMS7003;31492;54.856;26.318;2023-04-25T17:31:20;6.7;5.9;5
45788;PMS7003;31492;54.856;26.318;2023-04-25T17:36:08;7;6.6;5.4
45788;PMS7003;31492;54.856;26.318;2023-04-25T17:41:08;7.4;6.6;5.2
45788;PMS7003;31492;54.856;26.318;2023-04-25T17:46:08;8.3;6.5;5.5
45788;PMS7003;31492;54.856;26.318;2023-04-25T17:51:27;6.7;5.7;4.7
45788;PMS7003;31492;54.856;26.318;2023-04-25T17:56:14;7;6.1;5.3
45788;PMS7003;31492;54.856;26.318;2023-04-25T18:01:08;7.4;6.6;5.3
45788;PMS7003;31492;54.856;26.318;2023-04-25T18:06:34;7.3;6.4;5.2
45788;PMS7003;31492;54.856;26.318;2023-04-25T18:11:18;7.7;6.5;5.3
45788;PMS7003;31492;54.856;26.318;2023-04-25T18:16:46;6.3;6.1;5.1
45788;PMS7003;31492;54.856;26.318;2023-04-25T18:21:22;6.3;5.7;4.6
45788;PMS7003;31492;54.856;26.318;2023-04-25T18:26:08;44.7;36.2;22.9
45788;PMS7003;31492;54.856;26.318;2023-04-25T18:31:42;64.9;53.3;32.2
45788;PMS7003;31492;54.856;26.318;2023-04-25T18:36:14;57.6;45;28.7
45788;PMS7003;31492;54.856;26.318;2023-04-25T18:41:18;25.1;20.6;14.2
45788;PMS7003;31492;54.856;26.318;2023-04-25T18:46:08;12.4;11.4;8.9
45788;PMS7003;31492;54.856;26.318;2023-04-25T18:51:14;10.8;9.5;7.7
45788;PMS7003;31492;54.856;26.318;2023-04-25T18:56:22;7.9;7.2;5.8
45788;PMS7003;31492;54.856;26.318;2023-04-25T19:01:08;7.8;7.2;5.9
45788;PMS7003;31492;54.856;26.318;2023-04-25T19:06:14;10.3;8.4;6.7
45788;PMS7003;31492;54.856;26.318;2023-04-25T19:11:22;7.7;6.6;5.5
45788;PMS7003;31492;54.856;26.318;2023-04-25T19:16:08;8.5;6.9;5.7
45788;PMS7003;31492;54.856;26.318;2023-04-25T19:21:08;7.8;7;5.7
45788;PMS7003;31492;54.856;26.318;2023-04-25T19:26:22;7.8;6.9;5.8
45788;PMS7003;31492;54.856;26.318;2023-04-25T19:31:28;9.5;8.1;6.4
45788;PMS7003;31492;54.856;26.318;2023-04-25T19:36:18;10.6;9.6;7.4
45788;PMS7003;31492;54.856;26.318;2023-04-25T19:41:08;10.4;9.2;7.6
45788;PMS7003;31492;54.856;26.318;2023-04-25T19:46:26;9.4;8.7;7.3
45788;PMS7003;31492;54.856;26.318;2023-04-25T19:51:22;10.9;9.4;7.7
45788;PMS7003;31492;54.856;26.318;2023-04-25T19:56:08;10.5;9.4;7.4
45788;PMS7003;31492;54.856;26.318;2023-04-25T20:01:14;9.5;8.8;7.2
45788;PMS7003;31492;54.856;26.318;2023-04-25T20:06:18;10.2;9;6.9
45788;PMS7003;31492;54.856;26.318;2023-04-25T20:11:18;10.6;8.3;6.7
45788;PMS7003;31492;54.856;26.318;2023-04-25T20:16:24;10.5;9.4;7.3
45788;PMS7003;31492;54.856;26.318;2023-04-25T20:21:08;10.9;10;8.4
45788;PMS7003;31492;54.856;26.318;2023-04-25T20:26:08;11.4;10.1;8
45788;PMS7003;31492;54.856;26.318;2023-04-25T20:31:08;10.5;9.7;7.8
45788;PMS7003;31492;54.856;26.318;2023-04-25T20:36:28;11.6;10;8.1
45788;PMS7003;31492;54.856;26.318;2023-04-25T20:41:26;11.2;9.6;7.7
45788;PMS7003;31492;54.856;26.318;2023-04-25T20:46:14;11.1;10.1;8.2
45788;PMS7003;31492;54.856;26.318;2023-04-25T20:51:08;12;10.2;8.4
45788;PMS7003;31492;54.856;26.318;2023-04-25T20:56:08;12;10.5;8.4
45788;PMS7003;31492;54.856;26.318;2023-04-25T21:01:08;12.5;11.3;9.2
45788;PMS7003;31492;54.856;26.318;2023-04-25T21:06:22;13.5;11.9;9.4
45788;PMS7003;31492;54.856;26.318;2023-04-25T21:11:22;12.2;11.5;8.7
45788;PMS7003;31492;54.856;26.318;2023-04-25T21:16:18;13.4;11.6;9.1
45788;PMS7003;31492;54.856;26.318;2023-04-25T21:21:28;12.5;11.6;9.3
45788;PMS7003;31492;54.856;26.318;2023-04-25T21:26:08;13.3;11.8;9.5
45788;PMS7003;31492;54.856;26.318;2023-04-25T21:31:08;13.9;12.9;9.9
45788;PMS7003;31492;54.856;26.318;2023-04-25T21:36:08;13.7;12;9.4
45788;PMS7003;31492;54.856;26.318;2023-04-25T21:41:54;14.4;12.4;9.5
45788;PMS7003;31492;54.856;26.318;2023-04-25T21:46:08;13;11.2;8.9
45788;PMS7003;31492;54.856;26.318;2023-04-25T21:51:08;12;11.1;9
45788;PMS7003;31492;54.856;26.318;2023-04-25T21:56:08;12.3;10.8;8.8
45788;PMS7003;31492;54.856;26.318;2023-04-25T22:01:08;12.9;11.2;8.9
45788;PMS7003;31492;54.856;26.318;2023-04-25T22:06:18;12.7;11.2;8.9
45788;PMS7003;31492;54.856;26.318;2023-04-25T22:11:34;12.5;11.1;8.9
45788;PMS7003;31492;54.856;26.318;2023-04-25T22:16:08;13.3;11.3;9.2
45788;PMS7003;31492;54.856;26.318;2023-04-25T22:21:08;12.3;10.7;8.3
45788;PMS7003;31492;54.856;26.318;2023-04-25T22:26:14;11.4;11;9.1
45788;PMS7003;31492;54.856;26.318;2023-04-25T22:31:28;10.6;9.5;7.6
45788;PMS7003;31492;54.856;26.318;2023-04-25T22:36:18;12.8;11.8;9.2
45788;PMS7003;31492;54.856;26.318;2023-04-25T22:41:08;14;11.9;9.2
45788;PMS7003;31492;54.856;26.318;2023-04-25T22:46:13;11.8;11.3;8.8
45788;PMS7003;31492;54.856;26.318;2023-04-25T22:51:08;12.6;11.1;8.7
45788;PMS7003;31492;54.856;26.318;2023-04-25T22:56:32;12.6;11.2;8.9
45788;PMS7003;31492;54.856;26.318;2023-04-25T23:01:20;12.7;11.4;9.4
45788;PMS7003;31492;54.856;26.318;2023-04-25T23:06:18;13.1;11.3;9
45788;PMS7003;31492;54.856;26.318;2023-04-25T23:11:08;12.9;11.8;9.3
45788;PMS7003;31492;54.856;26.318;2023-04-25T23:16:26;12.9;11.5;9.2
45788;PMS7003;31492;54.856;26.318;2023-04-25T23:21:32;13.8;12.1;9.2
45788;PMS7003;31492;54.856;26.318;2023-04-25T23:26:30;14;12.1;9.6
45788;PMS7003;31492;54.856;26.318;2023-04-25T23:31:28;13.1;11.6;9.1
45788;PMS7003;31492;54.856;26.318;2023-04-25T23:36:28;13.9;12.4;9.6
45788;PMS7003;31492;54.856;26.318;2023-04-25T23:41:08;12.6;11.2;9.1
45788;PMS7003;31492;54.856;26.318;2023-04-25T23:46:18;13.2;11.4;8.8
45788;PMS7003;31492;54.856;26.318;2023-04-25T23:51:08;13.4;11.9;9.6
45788;PMS7003;31492;54.856;26.318;2023-04-25T23:56:32;14.7;13.2;10.2
